createdAt,value
2018-02-18T00:00:40.929Z,7.40
2018-02-18T00:01:47.242Z,9.20
2018-02-18T00:02:53.721Z,8.07
2018-02-18T00:04:00.172Z,7.62
2018-02-18T00:05:06.503Z,6.93
2018-02-18T00:06:14.011Z,6.53
2018-02-18T00:07:21.425Z,7.20
2018-02-18T00:08:27.791Z,7.55
2018-02-18T00:09:34.618Z,7.32
2018-02-18T00:10:41.382Z,6.93
2018-02-18T00:11:47.688Z,7.72
2018-02-18T00:12:53.655Z,10.00
2018-02-18T00:13:59.701Z,7.47
2018-02-18T00:15:12.706Z,7.45
2018-02-18T00:16:18.961Z,7.90
2018-02-18T00:17:25.322Z,8.20
2018-02-18T00:18:31.725Z,8.07
2018-02-18T00:19:38.197Z,7.07
2018-02-18T00:20:44.697Z,7.82
2018-02-18T00:21:51.733Z,7.85
2018-02-18T00:22:58.401Z,7.28
2018-02-18T00:24:05.223Z,7.85
2018-02-18T00:25:16.846Z,7.47
2018-02-18T00:26:23.560Z,7.45
2018-02-18T00:27:30.016Z,6.82
2018-02-18T00:28:36.496Z,7.05
2018-02-18T00:29:42.928Z,7.47
2018-02-18T00:30:49.639Z,7.50
2018-02-18T00:31:56.085Z,7.55
2018-02-18T00:33:02.539Z,7.47
2018-02-18T00:34:08.862Z,7.50
2018-02-18T00:35:15.018Z,7.15
2018-02-18T00:36:27.308Z,7.22
2018-02-18T00:37:33.876Z,8.15
2018-02-18T00:38:40.336Z,7.85
2018-02-18T00:39:46.919Z,7.53
2018-02-18T00:40:53.223Z,6.50
2018-02-18T00:41:59.690Z,7.30
2018-02-18T00:43:06.052Z,7.82
2018-02-18T00:44:12.537Z,8.60
2018-02-18T00:45:19.631Z,8.05
2018-02-18T00:46:25.799Z,6.90
2018-02-18T00:47:32.331Z,7.40
2018-02-18T00:48:38.821Z,7.85
2018-02-18T00:49:45.376Z,7.50
2018-02-18T00:50:52.172Z,7.07
2018-02-18T00:51:58.561Z,7.75
2018-02-18T00:53:04.869Z,8.82
2018-02-18T00:54:11.566Z,7.28
2018-02-18T00:55:18.030Z,8.05
2018-02-18T00:56:24.412Z,7.20
2018-02-18T00:57:31.196Z,8.00
2018-02-18T00:58:37.575Z,8.07
2018-02-18T00:59:43.753Z,7.78
2018-02-18T01:00:49.950Z,7.28
2018-02-18T01:01:56.780Z,8.35
2018-02-18T01:03:03.463Z,7.90
2018-02-18T01:04:09.936Z,7.97
2018-02-18T01:05:16.010Z,8.00
2018-02-18T01:06:22.425Z,7.57
2018-02-18T01:07:28.885Z,8.15
2018-02-18T01:08:35.231Z,8.30
2018-02-18T01:09:42.003Z,7.53
2018-02-18T01:10:48.510Z,7.45
2018-02-18T01:11:55.200Z,7.43
2018-02-18T01:13:01.893Z,7.62
2018-02-18T01:14:08.560Z,7.60
2018-02-18T01:15:14.759Z,7.35
2018-02-18T01:16:21.195Z,7.47
2018-02-18T01:17:27.864Z,7.30
2018-02-18T01:18:34.288Z,8.10
2018-02-18T01:19:40.840Z,7.57
2018-02-18T01:20:47.488Z,7.80
2018-02-18T01:21:54.042Z,7.70
2018-02-18T01:23:00.384Z,7.12
2018-02-18T01:24:07.164Z,8.45
2018-02-18T01:25:13.912Z,7.25
2018-02-18T01:26:20.416Z,7.90
2018-02-18T01:27:26.547Z,7.37
2018-02-18T01:28:32.856Z,7.40
2018-02-18T01:29:47.199Z,8.65
2018-02-18T01:30:53.644Z,7.55
2018-02-18T01:32:00.262Z,7.53
2018-02-18T01:33:06.826Z,7.55
2018-02-18T01:34:13.373Z,7.82
2018-02-18T01:35:20.134Z,7.15
2018-02-18T01:36:26.800Z,7.43
2018-02-18T01:37:32.964Z,7.57
2018-02-18T01:38:39.131Z,6.90
2018-02-18T01:39:46.601Z,7.37
2018-02-18T01:40:53.025Z,7.97
2018-02-18T01:41:59.516Z,7.43
2018-02-18T01:43:05.844Z,8.18
2018-02-18T01:44:12.336Z,7.32
2018-02-18T01:45:18.721Z,6.25
2018-02-18T01:46:25.416Z,7.00
2018-02-18T01:47:31.605Z,6.80
2018-02-18T01:48:37.806Z,7.78
2018-02-18T01:49:44.332Z,7.72
2018-02-18T01:50:50.717Z,7.50
2018-02-18T01:51:57.296Z,6.78
2018-02-18T01:53:03.389Z,7.70
2018-02-18T01:54:09.913Z,7.12
2018-02-18T01:55:16.521Z,7.47
2018-02-18T01:56:27.931Z,8.60
2018-02-18T01:57:34.327Z,8.15
2018-02-18T01:58:40.495Z,7.20
2018-02-18T01:59:46.678Z,7.32
2018-02-18T02:00:53.271Z,7.65
2018-02-18T02:01:58.560Z,7.60
2018-02-18T02:03:05.372Z,7.00
2018-02-18T02:04:11.399Z,7.22
2018-02-18T02:05:17.880Z,6.80
2018-02-18T02:06:24.422Z,6.90
2018-02-18T02:07:30.902Z,7.40
2018-02-18T02:08:37.275Z,7.30
2018-02-18T02:09:43.740Z,8.20
2018-02-18T02:10:49.621Z,7.18
2018-02-18T02:11:55.785Z,7.80
2018-02-18T02:13:08.467Z,8.50
2018-02-18T02:14:15.052Z,6.85
2018-02-18T02:15:21.574Z,7.37
2018-02-18T02:16:28.692Z,6.87
2018-02-18T02:17:35.142Z,7.95
2018-02-18T02:18:41.572Z,7.30
2018-02-18T02:19:47.950Z,7.28
2018-02-18T02:20:54.561Z,7.25
2018-02-18T02:22:00.998Z,8.07
2018-02-18T02:23:07.156Z,7.40
2018-02-18T02:24:13.880Z,8.48
2018-02-18T02:25:20.375Z,8.05
2018-02-18T02:26:26.844Z,7.97
2018-02-18T02:27:33.336Z,7.32
2018-02-18T02:28:39.760Z,7.53
2018-02-18T02:29:46.029Z,7.35
2018-02-18T02:30:52.499Z,7.65
2018-02-18T02:31:59.764Z,8.93
2018-02-18T02:33:06.313Z,8.15
2018-02-18T02:34:12.174Z,7.25
2018-02-18T02:35:18.346Z,7.43
2018-02-18T02:36:26.060Z,9.05
2018-02-18T02:37:32.282Z,8.40
2018-02-18T02:38:38.287Z,8.45
2018-02-18T02:39:44.989Z,8.20
2018-02-18T02:40:51.411Z,7.12
2018-02-18T02:42:02.885Z,7.87
2018-02-18T02:43:09.016Z,7.57
2018-02-18T02:44:15.376Z,7.97
2018-02-18T02:45:22.917Z,7.90
2018-02-18T02:46:29.348Z,7.05
2018-02-18T02:47:35.793Z,7.50
2018-02-18T02:48:42.306Z,7.07
2018-02-18T02:49:48.499Z,7.75
2018-02-18T02:50:54.643Z,7.43
2018-02-18T02:52:01.295Z,7.62
2018-02-18T02:53:08.088Z,8.30
2018-02-18T02:54:14.426Z,7.20
2018-02-18T02:55:20.859Z,7.60
2018-02-18T02:56:27.350Z,7.43
2018-02-18T02:57:33.516Z,7.03
2018-02-18T02:58:40.953Z,7.35
2018-02-18T02:59:47.090Z,7.80
2018-02-18T03:00:53.323Z,7.78
2018-02-18T03:01:59.501Z,7.97
2018-02-18T03:03:06.480Z,7.85
2018-02-18T03:04:12.655Z,7.20
2018-02-18T03:05:18.808Z,7.85
2018-02-18T03:06:24.936Z,7.78
2018-02-18T03:07:31.108Z,8.10
2018-02-18T03:08:37.301Z,8.35
2018-02-18T03:09:44.372Z,7.80
2018-02-18T03:10:51.455Z,7.65
2018-02-18T03:11:57.590Z,8.18
2018-02-18T03:13:03.734Z,7.47
2018-02-18T03:14:09.912Z,8.02
2018-02-18T03:15:16.124Z,7.30
2018-02-18T03:16:22.338Z,7.53
2018-02-18T03:17:28.508Z,8.95
2018-02-18T03:18:34.623Z,7.50
2018-02-18T03:19:40.756Z,8.20
2018-02-18T03:20:47.000Z,7.00
2018-02-18T03:21:52.925Z,8.00
2018-02-18T03:22:59.080Z,8.35
2018-02-18T03:24:05.221Z,8.27
2018-02-18T03:25:11.437Z,7.93
2018-02-18T03:26:17.615Z,7.90
2018-02-18T03:27:23.397Z,8.13
2018-02-18T03:28:29.532Z,7.40
2018-02-18T03:29:35.681Z,7.50
2018-02-18T03:30:41.898Z,8.48
2018-02-18T03:31:48.131Z,7.78
2018-02-18T03:32:54.316Z,8.70
2018-02-18T03:34:01.393Z,7.70
2018-02-18T03:35:07.577Z,7.65
2018-02-18T03:36:13.752Z,7.82
2018-02-18T03:37:19.581Z,8.02
2018-02-18T03:38:25.522Z,8.05
2018-02-18T03:39:31.642Z,7.87
2018-02-18T03:40:37.831Z,8.05
2018-02-18T03:41:43.973Z,6.97
2018-02-18T03:42:50.143Z,7.78
2018-02-18T03:43:56.269Z,7.53
2018-02-18T03:45:02.392Z,8.13
2018-02-18T03:46:08.208Z,7.18
2018-02-18T03:47:14.377Z,7.53
2018-02-18T03:48:20.540Z,8.00
2018-02-18T03:49:26.739Z,7.45
2018-02-18T03:50:32.926Z,7.30
2018-02-18T03:51:39.057Z,7.30
2018-02-18T03:52:46.191Z,8.32
2018-02-18T03:53:52.345Z,7.15
2018-02-18T03:54:58.528Z,7.68
2018-02-18T03:56:04.769Z,8.10
2018-02-18T03:57:11.360Z,7.80
2018-02-18T03:58:17.486Z,7.12
2018-02-18T03:59:23.395Z,7.72
2018-02-18T04:00:29.618Z,7.32
2018-02-18T04:01:35.739Z,7.03
2018-02-18T04:02:41.903Z,7.72
2018-02-18T04:03:48.102Z,7.32
2018-02-18T04:04:54.218Z,7.53
2018-02-18T04:06:00.383Z,7.65
2018-02-18T04:07:06.593Z,8.18
2018-02-18T04:08:12.759Z,8.80
2018-02-18T04:09:18.898Z,8.02
2018-02-18T04:10:25.033Z,7.90
2018-02-18T04:11:31.208Z,7.12
2018-02-18T04:12:37.370Z,6.80
2018-02-18T04:13:43.528Z,8.43
2018-02-18T04:14:49.736Z,7.80
2018-02-18T04:15:55.877Z,6.80
2018-02-18T04:17:02.050Z,7.45
2018-02-18T04:18:08.160Z,7.35
2018-02-18T04:19:14.259Z,8.00
2018-02-18T04:20:20.449Z,7.37
2018-02-18T04:21:26.610Z,7.25
2018-02-18T04:22:32.864Z,7.35
2018-02-18T04:23:39.299Z,7.60
2018-02-18T04:24:45.453Z,7.85
2018-02-18T04:25:51.664Z,6.65
2018-02-18T04:26:57.825Z,6.95
2018-02-18T04:28:04.889Z,7.15
2018-02-18T04:29:11.070Z,7.35
2018-02-18T04:30:17.068Z,6.62
2018-02-18T04:31:23.241Z,6.93
2018-02-18T04:32:29.360Z,6.78
2018-02-18T04:33:35.562Z,7.18
2018-02-18T04:34:41.690Z,8.07
2018-02-18T04:35:47.797Z,6.93
2018-02-18T04:36:53.965Z,7.10
2018-02-18T04:38:01.021Z,6.95
2018-02-18T04:39:07.161Z,7.45
2018-02-18T04:40:13.302Z,7.45
2018-02-18T04:41:20.377Z,6.60
2018-02-18T04:42:26.557Z,7.15
2018-02-18T04:43:32.689Z,6.90
2018-02-18T04:44:38.848Z,7.80
2018-02-18T04:45:45.036Z,7.62
2018-02-18T04:46:51.174Z,7.12
2018-02-18T04:47:57.298Z,7.53
2018-02-18T04:49:03.483Z,8.15
2018-02-18T04:50:09.669Z,7.50
2018-02-18T04:51:15.808Z,6.85
2018-02-18T04:52:21.915Z,6.87
2018-02-18T04:53:27.740Z,7.82
2018-02-18T04:54:34.968Z,6.68
2018-02-18T04:55:41.355Z,8.63
2018-02-18T04:56:47.749Z,7.93
2018-02-18T04:57:53.924Z,7.40
2018-02-18T04:59:00.090Z,7.28
2018-02-18T05:00:06.208Z,6.90
2018-02-18T05:01:12.417Z,7.50
2018-02-18T05:02:23.828Z,6.82
2018-02-18T05:03:29.986Z,7.82
2018-02-18T05:04:36.169Z,8.15
2018-02-18T05:05:42.514Z,8.05
2018-02-18T05:06:48.645Z,7.45
2018-02-18T05:07:54.794Z,7.45
2018-02-18T05:09:00.943Z,7.50
2018-02-18T05:10:06.890Z,7.68
2018-02-18T05:11:13.009Z,7.78
2018-02-18T05:12:19.152Z,7.75
2018-02-18T05:13:25.289Z,7.50
2018-02-18T05:14:31.439Z,6.75
2018-02-18T05:15:37.612Z,7.57
2018-02-18T05:16:47.645Z,7.15
2018-02-18T05:17:53.801Z,7.93
2018-02-18T05:18:59.913Z,7.25
2018-02-18T05:20:06.923Z,8.32
2018-02-18T05:21:13.148Z,6.37
2018-02-18T05:22:20.213Z,7.90
2018-02-18T05:23:25.998Z,6.95
2018-02-18T05:24:37.664Z,6.75
2018-02-18T05:25:43.784Z,6.78
2018-02-18T05:26:52.140Z,6.37
2018-02-18T05:27:58.337Z,7.57
2018-02-18T05:29:04.457Z,7.00
2018-02-18T05:30:10.628Z,7.50
2018-02-18T05:31:17.717Z,6.80
2018-02-18T05:32:23.881Z,7.07
2018-02-18T05:33:30.067Z,6.90
2018-02-18T05:34:36.440Z,7.53
2018-02-18T05:35:42.597Z,8.07
2018-02-18T05:36:48.788Z,7.07
2018-02-18T05:37:54.924Z,6.85
2018-02-18T05:39:01.042Z,7.87
2018-02-18T05:40:07.165Z,6.65
2018-02-18T05:41:13.336Z,7.05
2018-02-18T05:42:19.211Z,7.45
2018-02-18T05:43:25.424Z,7.40
2018-02-18T05:44:31.812Z,8.00
2018-02-18T05:45:38.000Z,7.05
2018-02-18T05:46:45.044Z,6.75
2018-02-18T05:47:51.226Z,7.22
2018-02-18T05:48:57.393Z,7.28
2018-02-18T05:50:03.589Z,6.60
2018-02-18T05:51:09.735Z,7.50
2018-02-18T05:52:15.915Z,7.60
2018-02-18T05:53:22.106Z,7.03
2018-02-18T05:54:28.214Z,7.60
2018-02-18T05:55:34.343Z,7.62
2018-02-18T05:56:40.512Z,8.00
2018-02-18T05:57:47.620Z,7.00
2018-02-18T05:58:55.244Z,7.60
2018-02-18T06:00:01.338Z,8.18
2018-02-18T06:01:07.742Z,7.55
2018-02-18T06:02:13.889Z,7.70
2018-02-18T06:03:20.099Z,7.40
2018-02-18T06:04:26.313Z,7.55
2018-02-18T06:05:32.517Z,7.60
2018-02-18T06:06:38.714Z,8.02
2018-02-18T06:07:44.656Z,7.75
2018-02-18T06:08:53.833Z,6.70
2018-02-18T06:09:59.958Z,7.55
2018-02-18T06:11:06.131Z,7.75
2018-02-18T06:12:12.320Z,7.55
2018-02-18T06:13:18.403Z,7.75
2018-02-18T06:14:24.568Z,7.70
2018-02-18T06:15:33.312Z,7.50
2018-02-18T06:16:39.451Z,8.07
2018-02-18T06:17:45.648Z,8.05
2018-02-18T06:18:52.104Z,7.70
2018-02-18T06:19:58.800Z,8.10
2018-02-18T06:21:04.960Z,7.55
2018-02-18T06:22:11.102Z,8.15
2018-02-18T06:23:17.351Z,7.90
2018-02-18T06:24:23.498Z,8.70
2018-02-18T06:25:29.328Z,6.85
2018-02-18T06:26:35.086Z,7.72
2018-02-18T06:27:41.249Z,7.95
2018-02-18T06:28:47.452Z,7.37
2018-02-18T06:29:53.580Z,7.55
2018-02-18T06:30:59.764Z,8.20
2018-02-18T06:32:06.170Z,7.35
2018-02-18T06:33:12.320Z,7.87
2018-02-18T06:34:21.437Z,8.32
2018-02-18T06:35:27.622Z,7.70
2018-02-18T06:36:33.812Z,8.05
2018-02-18T06:37:39.945Z,7.43
2018-02-18T06:38:46.064Z,8.88
2018-02-18T06:39:52.236Z,9.05
2018-02-18T06:40:58.423Z,10.00
2018-02-18T06:42:04.603Z,9.05
2018-02-18T06:43:10.786Z,8.52
2018-02-18T06:44:16.692Z,8.60
2018-02-18T06:45:22.837Z,8.25
2018-02-18T06:46:29.014Z,8.57
2018-02-18T06:47:34.941Z,10.05
2018-02-18T06:48:41.083Z,9.60
2018-02-18T06:49:47.313Z,8.98
2018-02-18T06:50:58.785Z,8.85
2018-02-18T06:52:05.133Z,8.77
2018-02-18T06:53:12.002Z,9.32
2018-02-18T06:54:19.022Z,8.75
2018-02-18T06:55:25.878Z,9.27
2018-02-18T06:56:33.439Z,10.98
2018-02-18T06:57:41.691Z,11.30
2018-02-18T06:58:49.119Z,12.82
2018-02-18T06:59:55.924Z,10.82
2018-02-18T07:01:05.287Z,9.70
2018-02-18T07:02:13.109Z,9.40
2018-02-18T07:03:21.289Z,9.88
2018-02-18T07:04:28.586Z,8.70
2018-02-18T07:05:36.595Z,9.30
2018-02-18T07:06:43.803Z,8.82
2018-02-18T07:07:51.894Z,8.85
2018-02-18T07:08:59.091Z,7.95
2018-02-18T07:10:07.142Z,8.38
2018-02-18T07:11:15.249Z,8.65
2018-02-18T07:12:22.386Z,9.65
2018-02-18T07:13:29.476Z,9.18
2018-02-18T07:14:36.673Z,10.27
2018-02-18T07:15:44.429Z,10.68
2018-02-18T07:16:51.682Z,10.55
2018-02-18T07:17:59.810Z,11.35
2018-02-18T07:19:07.003Z,10.02
2018-02-18T07:20:13.767Z,11.38
2018-02-18T07:21:21.715Z,10.75
2018-02-18T07:22:29.222Z,9.70
2018-02-18T07:23:36.132Z,9.60
2018-02-18T07:24:43.467Z,8.77
2018-02-18T07:25:50.917Z,8.25
2018-02-18T07:26:59.312Z,8.02
2018-02-18T07:28:07.442Z,8.45
2018-02-18T07:29:15.826Z,8.57
2018-02-18T07:30:24.142Z,9.05
2018-02-18T07:31:32.606Z,9.00
2018-02-18T07:32:39.075Z,7.65
2018-02-18T07:33:47.065Z,7.95
2018-02-18T07:34:54.799Z,8.88
2018-02-18T07:36:02.287Z,7.72
2018-02-18T07:37:10.402Z,8.57
2018-02-18T07:38:17.183Z,7.53
2018-02-18T07:39:28.934Z,8.73
2018-02-18T07:40:37.193Z,8.63
2018-02-18T07:41:44.501Z,8.95
2018-02-18T07:42:51.571Z,8.10
2018-02-18T07:43:59.218Z,7.90
2018-02-18T07:45:07.603Z,8.13
2018-02-18T07:46:14.992Z,8.40
2018-02-18T07:47:22.897Z,7.57
2018-02-18T07:48:31.036Z,8.60
2018-02-18T07:49:38.544Z,7.72
2018-02-18T07:50:45.963Z,8.10
2018-02-18T07:51:53.482Z,8.00
2018-02-18T07:53:00.569Z,8.90
2018-02-18T07:54:08.062Z,8.90
2018-02-18T07:55:16.414Z,8.02
2018-02-18T07:56:24.323Z,9.70
2018-02-18T07:57:31.612Z,9.00
2018-02-18T07:58:38.845Z,9.93
2018-02-18T07:59:46.766Z,10.25
2018-02-18T08:00:55.937Z,10.10
2018-02-18T08:02:03.892Z,11.35
2018-02-18T08:03:12.893Z,11.43
2018-02-18T08:04:19.740Z,14.20
2018-02-18T08:05:28.387Z,13.82
2018-02-18T08:06:36.165Z,10.70
2018-02-18T08:07:43.406Z,12.32
2018-02-18T08:08:51.595Z,10.50
2018-02-18T08:09:59.048Z,10.05
2018-02-18T08:11:06.538Z,10.25
2018-02-18T08:12:13.800Z,10.10
2018-02-18T08:13:20.398Z,10.07
2018-02-18T08:14:27.691Z,9.15
2018-02-18T08:15:34.736Z,8.88
2018-02-18T08:16:41.934Z,10.25
2018-02-18T08:17:49.145Z,8.85
2018-02-18T08:18:57.279Z,9.60
2018-02-18T08:20:04.265Z,9.43
2018-02-18T08:21:12.104Z,9.48
2018-02-18T08:22:19.054Z,10.13
2018-02-18T08:23:26.226Z,11.27
2018-02-18T08:24:33.859Z,11.73
2018-02-18T08:25:40.970Z,11.85
2018-02-18T08:26:49.422Z,10.18
2018-02-18T08:27:56.003Z,10.77
2018-02-18T08:29:03.490Z,11.32
2018-02-18T08:30:10.764Z,11.90
2018-02-18T08:31:18.375Z,10.55
2018-02-18T08:32:25.396Z,10.48
2018-02-18T08:33:32.656Z,10.02
2018-02-18T08:34:39.580Z,10.15
2018-02-18T08:35:46.813Z,9.98
2018-02-18T08:36:54.938Z,11.52
2018-02-18T08:38:03.799Z,11.55
2018-02-18T08:39:12.204Z,11.20
2018-02-18T08:40:19.541Z,10.57
2018-02-18T08:41:26.747Z,12.35
2018-02-18T08:42:34.095Z,12.63
2018-02-18T08:43:41.781Z,11.48
2018-02-18T08:44:49.815Z,13.52
2018-02-18T08:45:57.062Z,12.88
2018-02-18T08:47:04.502Z,14.60
2018-02-18T08:48:11.592Z,14.63
2018-02-18T08:49:19.447Z,14.95
2018-02-18T08:50:26.699Z,14.32
2018-02-18T08:51:34.057Z,13.70
2018-02-18T08:52:44.507Z,13.38
2018-02-18T08:53:52.571Z,15.52
2018-02-18T08:55:00.175Z,15.25
2018-02-18T08:56:07.493Z,15.07
2018-02-18T08:57:14.805Z,14.13
2018-02-18T08:58:27.242Z,14.10
2018-02-18T08:59:34.669Z,15.27
2018-02-18T09:00:41.691Z,15.52
2018-02-18T09:01:48.650Z,14.85
2018-02-18T09:02:56.482Z,14.70
2018-02-18T09:04:03.280Z,15.18
2018-02-18T09:05:11.604Z,13.93
2018-02-18T09:06:20.180Z,14.35
2018-02-18T09:07:28.462Z,14.48
2018-02-18T09:08:35.759Z,15.27
2018-02-18T09:09:43.040Z,15.32
2018-02-18T09:10:50.547Z,14.02
2018-02-18T09:11:57.117Z,15.30
2018-02-18T09:13:05.561Z,14.75
2018-02-18T09:14:11.780Z,14.55
2018-02-18T09:15:18.940Z,13.65
2018-02-18T09:16:25.922Z,14.82
2018-02-18T09:17:33.680Z,13.75
2018-02-18T09:18:39.951Z,14.32
2018-02-18T09:19:45.695Z,16.12
2018-02-18T09:20:52.266Z,15.63
2018-02-18T09:22:00.012Z,14.20
2018-02-18T09:23:08.174Z,16.15
2018-02-18T09:24:14.937Z,15.93
2018-02-18T09:25:21.691Z,16.58
2018-02-18T09:26:28.829Z,16.15
2018-02-18T09:27:35.156Z,17.52
2018-02-18T09:28:41.490Z,15.02
2018-02-18T09:29:47.687Z,15.88
2018-02-18T09:30:53.935Z,16.95
2018-02-18T09:32:00.056Z,15.73
2018-02-18T09:33:06.205Z,15.93
2018-02-18T09:34:12.395Z,16.37
2018-02-18T09:35:19.464Z,16.20
2018-02-18T09:36:25.723Z,16.50
2018-02-18T09:37:32.106Z,16.95
2018-02-18T09:38:38.286Z,16.75
2018-02-18T09:39:44.481Z,16.75
2018-02-18T09:40:50.730Z,16.35
2018-02-18T09:41:56.871Z,17.12
2018-02-18T09:43:03.055Z,16.35
2018-02-18T09:44:09.274Z,16.60
2018-02-18T09:45:15.446Z,17.33
2018-02-18T09:46:21.668Z,18.83
2018-02-18T09:47:27.865Z,17.52
2018-02-18T09:48:34.047Z,18.45
2018-02-18T09:49:40.225Z,17.70
2018-02-18T09:50:46.390Z,17.25
2018-02-18T09:51:52.561Z,19.12
2018-02-18T09:52:58.730Z,17.98
2018-02-18T09:54:04.967Z,18.00
2018-02-18T09:55:11.157Z,17.12
2018-02-18T09:56:17.311Z,17.62
2018-02-18T09:57:23.474Z,18.83
2018-02-18T09:58:29.745Z,18.23
2018-02-18T09:59:35.973Z,18.15
2018-02-18T10:00:42.101Z,17.70
2018-02-18T10:01:48.296Z,18.25
2018-02-18T10:02:54.517Z,19.33
2018-02-18T10:04:00.718Z,19.30
2018-02-18T10:05:06.868Z,19.48
2018-02-18T10:06:13.368Z,19.83
2018-02-18T10:07:19.533Z,20.45
2018-02-18T10:08:25.765Z,19.73
2018-02-18T10:09:31.941Z,19.80
2018-02-18T10:10:38.961Z,19.00
2018-02-18T10:11:45.147Z,20.27
2018-02-18T10:12:51.319Z,19.35
2018-02-18T10:13:58.329Z,19.23
2018-02-18T10:15:04.996Z,19.27
2018-02-18T10:16:11.137Z,20.85
2018-02-18T10:17:17.354Z,20.42
2018-02-18T10:18:23.542Z,20.45
2018-02-18T10:19:29.659Z,19.42
2018-02-18T10:20:35.834Z,19.12
2018-02-18T10:21:42.015Z,19.27
2018-02-18T10:22:48.213Z,17.23
2018-02-18T10:23:54.115Z,19.05
2018-02-18T10:25:00.275Z,19.02
2018-02-18T10:26:06.949Z,20.45
2018-02-18T10:27:14.755Z,19.70
2018-02-18T10:28:21.712Z,19.73
2018-02-18T10:29:28.674Z,18.85
2018-02-18T10:30:35.455Z,20.40
2018-02-18T10:31:43.225Z,17.45
2018-02-18T10:32:50.716Z,19.52
2018-02-18T10:33:57.612Z,17.65
2018-02-18T10:35:05.103Z,21.40
2018-02-18T10:36:11.833Z,19.83
2018-02-18T10:37:19.220Z,20.83
2018-02-18T10:38:26.365Z,20.67
2018-02-18T10:39:33.284Z,19.33
2018-02-18T10:40:40.084Z,19.27
2018-02-18T10:41:46.968Z,18.75
2018-02-18T10:42:54.255Z,20.23
2018-02-18T10:44:00.502Z,18.20
2018-02-18T10:45:07.793Z,20.00
2018-02-18T10:46:14.633Z,17.92
2018-02-18T10:47:21.771Z,19.65
2018-02-18T10:48:28.450Z,17.50
2018-02-18T10:49:35.551Z,17.98
2018-02-18T10:50:41.790Z,17.95
2018-02-18T10:51:49.833Z,17.73
2018-02-18T10:52:56.701Z,18.67
2018-02-18T10:54:02.892Z,17.67
2018-02-18T10:55:09.081Z,15.73
2018-02-18T10:56:15.278Z,17.40
2018-02-18T10:57:21.266Z,17.30
2018-02-18T10:58:29.416Z,18.58
2018-02-18T10:59:35.638Z,18.23
2018-02-18T11:00:41.764Z,18.87
2018-02-18T11:01:48.185Z,17.95
2018-02-18T11:02:54.339Z,17.00
2018-02-18T11:04:00.476Z,17.70
2018-02-18T11:05:06.659Z,18.62
2018-02-18T11:06:13.028Z,18.02
2018-02-18T11:07:19.148Z,15.70
2018-02-18T11:08:25.316Z,16.05
2018-02-18T11:09:31.507Z,15.38
2018-02-18T11:10:37.642Z,16.08
2018-02-18T11:11:43.788Z,15.57
2018-02-18T11:12:49.996Z,14.20
2018-02-18T11:13:56.184Z,14.40
2018-02-18T11:15:02.387Z,16.40
2018-02-18T11:16:08.575Z,17.20
2018-02-18T11:17:14.755Z,19.55
2018-02-18T11:18:20.984Z,17.45
2018-02-18T11:19:27.107Z,18.42
2018-02-18T11:20:33.113Z,18.95
2018-02-18T11:21:39.264Z,16.70
2018-02-18T11:22:45.432Z,16.35
2018-02-18T11:23:51.689Z,17.17
2018-02-18T11:24:57.830Z,17.25
2018-02-18T11:26:04.042Z,17.98
2018-02-18T11:27:10.205Z,16.27
2018-02-18T11:28:16.341Z,16.00
2018-02-18T11:29:22.829Z,15.40
2018-02-18T11:30:28.979Z,15.63
2018-02-18T11:31:35.168Z,15.45
2018-02-18T11:32:41.345Z,16.35
2018-02-18T11:33:47.530Z,14.80
2018-02-18T11:34:53.684Z,15.93
2018-02-18T11:35:59.897Z,15.23
2018-02-18T11:37:06.051Z,15.25
2018-02-18T11:38:12.960Z,15.43
2018-02-18T11:39:19.118Z,15.50
2018-02-18T11:40:25.441Z,15.63
2018-02-18T11:41:36.966Z,14.85
2018-02-18T11:42:44.115Z,16.17
2018-02-18T11:43:51.223Z,16.05
2018-02-18T11:44:58.096Z,16.98
2018-02-18T11:46:05.230Z,15.70
2018-02-18T11:47:11.601Z,17.05
2018-02-18T11:48:19.072Z,15.02
2018-02-18T11:49:26.375Z,16.25
2018-02-18T11:50:32.996Z,14.30
2018-02-18T11:51:39.840Z,16.35
2018-02-18T11:52:46.185Z,14.60
2018-02-18T11:53:56.316Z,16.33
2018-02-18T11:55:03.123Z,16.95
2018-02-18T11:56:10.245Z,16.50
2018-02-18T11:57:17.104Z,15.02
2018-02-18T11:58:23.663Z,15.52
2018-02-18T11:59:30.635Z,14.18
2018-02-18T12:00:41.971Z,15.82
2018-02-18T12:01:48.659Z,16.05
2018-02-18T12:02:55.241Z,15.35
2018-02-18T12:04:01.872Z,16.48
2018-02-18T12:05:08.696Z,17.23
2018-02-18T12:06:15.806Z,15.63
2018-02-18T12:07:23.232Z,16.40
2018-02-18T12:08:32.755Z,16.58
2018-02-18T12:09:40.131Z,19.10
2018-02-18T12:10:46.939Z,16.05
2018-02-18T12:11:53.684Z,17.02
2018-02-18T12:13:01.196Z,16.15
2018-02-18T12:14:08.655Z,18.17
2018-02-18T12:15:15.612Z,16.45
2018-02-18T12:16:23.632Z,16.30
2018-02-18T12:17:30.339Z,15.70
2018-02-18T12:18:37.019Z,15.20
2018-02-18T12:19:43.230Z,14.95
2018-02-18T12:20:50.207Z,16.27
2018-02-18T12:21:56.993Z,14.98
2018-02-18T12:23:05.042Z,15.05
2018-02-18T12:24:11.987Z,14.25
2018-02-18T12:25:19.552Z,14.20
2018-02-18T12:26:28.394Z,15.32
2018-02-18T12:27:36.022Z,14.02
2018-02-18T12:28:44.301Z,15.15
2018-02-18T12:29:52.527Z,16.35
2018-02-18T12:31:00.778Z,16.77
2018-02-18T12:32:09.442Z,15.70
2018-02-18T12:33:17.878Z,13.13
2018-02-18T12:34:26.013Z,15.80
2018-02-18T12:35:33.070Z,15.57
2018-02-18T12:36:41.091Z,15.25
2018-02-18T12:37:48.186Z,14.35
2018-02-18T12:38:55.632Z,15.10
2018-02-18T12:40:04.305Z,13.13
2018-02-18T12:41:11.358Z,12.00
2018-02-18T12:42:20.064Z,12.40
2018-02-18T12:43:28.099Z,12.05
2018-02-18T12:44:37.388Z,13.32
2018-02-18T12:45:45.830Z,12.98
2018-02-18T12:46:55.310Z,12.30
2018-02-18T12:48:03.462Z,10.73
2018-02-18T12:49:10.007Z,11.75
2018-02-18T12:50:18.176Z,10.38
2018-02-18T12:51:25.664Z,11.25
2018-02-18T12:52:34.001Z,11.40
2018-02-18T12:53:46.783Z,10.80
2018-02-18T12:54:54.748Z,11.73
2018-02-18T12:56:03.057Z,10.82
2018-02-18T12:57:11.878Z,10.23
2018-02-18T12:58:20.048Z,11.52
2018-02-18T12:59:27.673Z,11.98
2018-02-18T13:00:35.502Z,10.52
2018-02-18T13:01:43.278Z,11.82
2018-02-18T13:02:52.047Z,12.18
2018-02-18T13:03:59.171Z,11.68
2018-02-18T13:05:06.469Z,11.27
2018-02-18T13:06:14.641Z,11.48
2018-02-18T13:07:23.509Z,12.15
2018-02-18T13:08:32.061Z,12.30
2018-02-18T13:09:40.585Z,13.38
2018-02-18T13:10:48.022Z,13.93
2018-02-18T13:11:55.572Z,13.52
2018-02-18T13:13:02.970Z,13.15
2018-02-18T13:14:11.434Z,13.38
2018-02-18T13:15:19.136Z,14.02
2018-02-18T13:16:26.701Z,14.45
2018-02-18T13:17:34.157Z,14.63
2018-02-18T13:18:41.449Z,13.98
2018-02-18T13:19:49.119Z,15.35
2018-02-18T13:20:57.435Z,15.07
2018-02-18T13:22:04.939Z,14.48
2018-02-18T13:23:12.252Z,13.88
2018-02-18T13:24:19.524Z,14.07
2018-02-18T13:25:27.192Z,12.95
2018-02-18T13:26:34.601Z,12.43
2018-02-18T13:27:41.942Z,12.13
2018-02-18T13:28:50.721Z,11.02
2018-02-18T13:29:58.234Z,10.30
2018-02-18T13:31:06.345Z,9.98
2018-02-18T13:32:18.568Z,9.60
2018-02-18T13:33:25.730Z,9.60
2018-02-18T13:34:33.484Z,9.05
2018-02-18T13:35:45.496Z,9.23
2018-02-18T13:36:53.370Z,8.77
2018-02-18T13:38:00.786Z,8.23
2018-02-18T13:39:08.463Z,8.18
2018-02-18T13:40:15.594Z,8.02
2018-02-18T13:41:22.681Z,8.57
2018-02-18T13:42:33.882Z,8.57
2018-02-18T13:43:41.030Z,9.20
2018-02-18T13:44:48.052Z,8.70
2018-02-18T13:45:56.818Z,8.38
2018-02-18T13:47:03.065Z,8.68
2018-02-18T13:48:09.286Z,9.65
2018-02-18T13:49:15.414Z,10.20
2018-02-18T13:50:21.613Z,8.30
2018-02-18T13:51:27.819Z,7.12
2018-02-18T13:52:33.994Z,8.27
2018-02-18T13:53:40.453Z,7.53
2018-02-18T13:54:46.760Z,8.23
2018-02-18T13:55:52.930Z,9.05
2018-02-18T13:56:59.287Z,7.55
2018-02-18T13:58:05.469Z,7.28
2018-02-18T13:59:11.805Z,6.80
2018-02-18T14:00:19.162Z,8.70
2018-02-18T14:01:26.041Z,6.62
2018-02-18T14:02:32.641Z,7.95
2018-02-18T14:03:38.777Z,7.97
2018-02-18T14:04:45.038Z,8.68
2018-02-18T14:05:51.189Z,9.50
2018-02-18T14:06:57.794Z,10.07
2018-02-18T14:08:05.412Z,10.68
2018-02-18T14:09:11.952Z,9.95
2018-02-18T14:10:18.896Z,9.75
2018-02-18T14:11:25.122Z,9.30
2018-02-18T14:12:31.447Z,10.70
2018-02-18T14:13:37.992Z,9.20
2018-02-18T14:14:44.566Z,8.68
2018-02-18T14:15:50.857Z,9.65
2018-02-18T14:16:57.513Z,10.10
2018-02-18T14:18:04.612Z,10.15
2018-02-18T14:19:11.589Z,9.15
2018-02-18T14:20:18.625Z,8.48
2018-02-18T14:21:25.860Z,10.45
2018-02-18T14:22:32.699Z,9.23
2018-02-18T14:23:39.546Z,9.00
2018-02-18T14:24:46.396Z,10.25
2018-02-18T14:25:53.353Z,10.30
2018-02-18T14:27:00.364Z,10.85
2018-02-18T14:28:07.189Z,11.20
2018-02-18T14:29:20.511Z,10.70
2018-02-18T14:30:27.403Z,11.65
2018-02-18T14:31:34.358Z,12.73
2018-02-18T14:32:41.521Z,11.65
2018-02-18T14:33:48.622Z,11.60
2018-02-18T14:34:55.298Z,10.30
2018-02-18T14:36:02.634Z,11.45
2018-02-18T14:37:10.078Z,10.60
2018-02-18T14:38:17.094Z,10.43